sensor_id;sensor_type;location;lat;lon;timestamp;pressure;altitude;pressure_sealevel;temperature;humidity
54248;BME280;40161;39.768;2.722;2023-05-22T00:00:35;100869.38;;;17.54;92.88
54248;BME280;40161;39.768;2.722;2023-05-22T00:03:03;100868.16;;;17.62;92.33
54248;BME280;40161;39.768;2.722;2023-05-22T00:05:30;100850.72;;;17.58;90.60
54248;BME280;40161;39.768;2.722;2023-05-22T00:07:58;100872.38;;;17.77;89.91
54248;BME280;40161;39.768;2.722;2023-05-22T00:10:24;100847.09;;;17.65;89.29
54248;BME280;40161;39.768;2.722;2023-05-22T00:12:49;100846.28;;;17.68;89.69
54248;BME280;40161;39.768;2.722;2023-05-22T00:15:15;100869.59;;;17.77;88.90
54248;BME280;40161;39.768;2.722;2023-05-22T00:17:40;100830.59;;;17.50;90.20
54248;BME280;40161;39.768;2.722;2023-05-22T00:20:07;100848.31;;;17.60;89.98
54248;BME280;40161;39.768;2.722;2023-05-22T00:22:35;100859.28;;;17.74;90.14
54248;BME280;40161;39.768;2.722;2023-05-22T00:25:02;100834.03;;;17.65;89.27
54248;BME280;40161;39.768;2.722;2023-05-22T00:27:28;100850.13;;;17.81;88.92
54248;BME280;40161;39.768;2.722;2023-05-22T00:29:54;100871.44;;;17.91;89.16
54248;BME280;40161;39.768;2.722;2023-05-22T00:32:19;100846.97;;;17.75;89.01
54248;BME280;40161;39.768;2.722;2023-05-22T00:34:44;100855.22;;;17.90;88.66
54248;BME280;40161;39.768;2.722;2023-05-22T00:37:10;100846.53;;;17.84;88.45
54248;BME280;40161;39.768;2.722;2023-05-22T00:39:37;100867.84;;;17.94;88.39
54248;BME280;40161;39.768;2.722;2023-05-22T00:42:03;100862.28;;;17.94;88.80
54248;BME280;40161;39.768;2.722;2023-05-22T00:44:29;100858.72;;;17.94;88.21
54248;BME280;40161;39.768;2.722;2023-05-22T00:46:54;100834.28;;;17.78;88.05
54248;BME280;40161;39.768;2.722;2023-05-22T00:49:21;100836.63;;;17.83;88.42
54248;BME280;40161;39.768;2.722;2023-05-22T00:51:47;100841.31;;;17.90;88.29
54248;BME280;40161;39.768;2.722;2023-05-22T00:54:13;100833.41;;;17.88;88.58
54248;BME280;40161;39.768;2.722;2023-05-22T00:56:40;100790.84;;;17.61;87.71
54248;BME280;40161;39.768;2.722;2023-05-22T00:59:06;100823.19;;;17.74;88.39
54248;BME280;40161;39.768;2.722;2023-05-22T01:01:33;100842.16;;;17.87;88.28
54248;BME280;40161;39.768;2.722;2023-05-22T01:04:04;100803.25;;;17.49;89.75
54248;BME280;40161;39.768;2.722;2023-05-22T01:06:32;100817.50;;;17.51;89.21
54248;BME280;40161;39.768;2.722;2023-05-22T01:08:57;100829.66;;;17.64;89.98
54248;BME280;40161;39.768;2.722;2023-05-22T01:14:19;100823.41;;;17.56;91.04
54248;BME280;40161;39.768;2.722;2023-05-22T01:20:07;100834.84;;;17.62;92.24
54248;BME280;40161;39.768;2.722;2023-05-22T01:25:55;100810.41;;;17.46;93.40
54248;BME280;40161;39.768;2.722;2023-05-22T01:31:04;100786.41;;;17.29;93.20
54248;BME280;40161;39.768;2.722;2023-05-22T01:33:41;100808.84;;;17.45;93.53
54248;BME280;40161;39.768;2.722;2023-05-22T01:36:08;100813.56;;;17.48;92.75
54248;BME280;40161;39.768;2.722;2023-05-22T01:38:35;100811.63;;;17.45;92.76
54248;BME280;40161;39.768;2.722;2023-05-22T01:41:01;100802.88;;;17.47;92.08
54248;BME280;40161;39.768;2.722;2023-05-22T01:43:26;100806.03;;;17.49;92.55
54248;BME280;40161;39.768;2.722;2023-05-22T01:45:52;100789.78;;;17.47;92.74
54248;BME280;40161;39.768;2.722;2023-05-22T01:48:18;100788.31;;;17.36;90.08
54248;BME280;40161;39.768;2.722;2023-05-22T01:50:44;100789.94;;;17.33;90.36
54248;BME280;40161;39.768;2.722;2023-05-22T01:53:39;100816.59;;;17.61;90.45
54248;BME280;40161;39.768;2.722;2023-05-22T01:56:14;100801.09;;;17.67;89.40
54248;BME280;40161;39.768;2.722;2023-05-22T01:58:59;100810.91;;;17.75;89.73
54248;BME280;40161;39.768;2.722;2023-05-22T02:01:27;100799.09;;;17.68;90.51
54248;BME280;40161;39.768;2.722;2023-05-22T02:03:56;100806.97;;;17.73;90.98
54248;BME280;40161;39.768;2.722;2023-05-22T02:06:24;100812.09;;;17.74;91.16
54248;BME280;40161;39.768;2.722;2023-05-22T02:08:51;100805.88;;;17.63;90.92
54248;BME280;40161;39.768;2.722;2023-05-22T02:11:18;100794.81;;;17.60;90.63
54248;BME280;40161;39.768;2.722;2023-05-22T02:13:46;100816.88;;;17.74;90.60
54248;BME280;40161;39.768;2.722;2023-05-22T02:16:12;100814.59;;;17.65;90.74
54248;BME280;40161;39.768;2.722;2023-05-22T02:18:38;100824.56;;;17.59;91.30
54248;BME280;40161;39.768;2.722;2023-05-22T02:21:06;100820.19;;;17.58;91.24
54248;BME280;40161;39.768;2.722;2023-05-22T02:23:33;100802.94;;;17.40;91.81
54248;BME280;40161;39.768;2.722;2023-05-22T02:25:59;100812.53;;;17.31;93.33
54248;BME280;40161;39.768;2.722;2023-05-22T02:28:25;100822.34;;;17.40;93.77
54248;BME280;40161;39.768;2.722;2023-05-22T02:30:51;100796.28;;;17.30;93.04
54248;BME280;40161;39.768;2.722;2023-05-22T02:33:16;100794.63;;;17.40;92.18
54248;BME280;40161;39.768;2.722;2023-05-22T02:35:43;100802.91;;;17.43;91.57
54248;BME280;40161;39.768;2.722;2023-05-22T02:38:10;100799.09;;;17.26;90.21
54248;BME280;40161;39.768;2.722;2023-05-22T02:40:35;100831.75;;;17.53;92.35
54248;BME280;40161;39.768;2.722;2023-05-22T02:43:01;100806.94;;;17.39;91.18
54248;BME280;40161;39.768;2.722;2023-05-22T02:45:27;100814.47;;;17.38;91.33
54248;BME280;40161;39.768;2.722;2023-05-22T02:47:52;100798.28;;;17.29;92.12
54248;BME280;40161;39.768;2.722;2023-05-22T02:50:18;100800.25;;;17.32;92.37
54248;BME280;40161;39.768;2.722;2023-05-22T02:52:43;100809.19;;;17.47;92.10
54248;BME280;40161;39.768;2.722;2023-05-22T02:55:10;100805.25;;;17.48;91.61
54248;BME280;40161;39.768;2.722;2023-05-22T02:57:35;100802.09;;;17.46;91.18
54248;BME280;40161;39.768;2.722;2023-05-22T03:00:02;100785.66;;;17.25;92.32
54248;BME280;40161;39.768;2.722;2023-05-22T03:02:27;100795.00;;;17.42;92.36
54248;BME280;40161;39.768;2.722;2023-05-22T03:04:54;100770.91;;;17.35;91.93
54248;BME280;40161;39.768;2.722;2023-05-22T03:07:23;100768.53;;;17.33;92.05
54248;BME280;40161;39.768;2.722;2023-05-22T03:09:51;100738.97;;;17.16;92.28
54248;BME280;40161;39.768;2.722;2023-05-22T03:12:16;100744.91;;;17.18;93.02
54248;BME280;40161;39.768;2.722;2023-05-22T03:14:43;100729.63;;;16.99;93.97
54248;BME280;40161;39.768;2.722;2023-05-22T03:17:08;100730.13;;;16.87;95.25
54248;BME280;40161;39.768;2.722;2023-05-22T03:19:34;100697.06;;;16.62;95.24
54248;BME280;40161;39.768;2.722;2023-05-22T03:21:59;100727.44;;;16.80;96.39
54248;BME280;40161;39.768;2.722;2023-05-22T03:24:25;100710.91;;;16.58;96.62
54248;BME280;40161;39.768;2.722;2023-05-22T03:26:51;100724.72;;;16.69;97.27
54248;BME280;40161;39.768;2.722;2023-05-22T03:29:17;100731.31;;;16.90;97.28
54248;BME280;40161;39.768;2.722;2023-05-22T03:31:42;100710.69;;;16.94;95.99
54248;BME280;40161;39.768;2.722;2023-05-22T03:34:08;100695.22;;;16.97;94.30
54248;BME280;40161;39.768;2.722;2023-05-22T03:36:33;100705.53;;;16.93;94.13
54248;BME280;40161;39.768;2.722;2023-05-22T03:39:00;100698.06;;;16.90;95.03
54248;BME280;40161;39.768;2.722;2023-05-22T03:41:25;100709.13;;;16.90;94.88
54248;BME280;40161;39.768;2.722;2023-05-22T03:43:51;100701.25;;;16.84;95.18
54248;BME280;40161;39.768;2.722;2023-05-22T03:46:16;100693.66;;;16.92;95.05
54248;BME280;40161;39.768;2.722;2023-05-22T03:48:42;100691.72;;;16.85;94.31
54248;BME280;40161;39.768;2.722;2023-05-22T03:51:07;100709.44;;;16.99;94.32
54248;BME280;40161;39.768;2.722;2023-05-22T03:53:33;100686.91;;;16.97;94.23
54248;BME280;40161;39.768;2.722;2023-05-22T03:55:58;100715.56;;;17.21;93.74
54248;BME280;40161;39.768;2.722;2023-05-22T03:58:24;100714.38;;;17.22;93.60
54248;BME280;40161;39.768;2.722;2023-05-22T04:00:52;100711.63;;;17.18;93.25
54248;BME280;40161;39.768;2.722;2023-05-22T04:03:18;100702.97;;;17.13;93.06
54248;BME280;40161;39.768;2.722;2023-05-22T04:05:46;100745.16;;;17.35;92.82
54248;BME280;40161;39.768;2.722;2023-05-22T04:08:12;100697.50;;;17.05;92.82
54248;BME280;40161;39.768;2.722;2023-05-22T04:10:38;100726.25;;;17.22;92.51
54248;BME280;40161;39.768;2.722;2023-05-22T04:13:06;100717.59;;;17.13;93.27
54248;BME280;40161;39.768;2.722;2023-05-22T04:15:32;100757.06;;;17.31;92.79
54248;BME280;40161;39.768;2.722;2023-05-22T04:18:00;100759.38;;;17.37;92.99
54248;BME280;40161;39.768;2.722;2023-05-22T04:20:26;100752.03;;;17.19;92.30
54248;BME280;40161;39.768;2.722;2023-05-22T04:22:51;100708.72;;;16.91;92.38
54248;BME280;40161;39.768;2.722;2023-05-22T04:25:19;100757.19;;;17.21;92.91
54248;BME280;40161;39.768;2.722;2023-05-22T04:27:45;100746.88;;;17.21;92.47
54248;BME280;40161;39.768;2.722;2023-05-22T04:30:12;100753.56;;;17.24;93.19
54248;BME280;40161;39.768;2.722;2023-05-22T04:32:38;100742.53;;;17.17;92.53
54248;BME280;40161;39.768;2.722;2023-05-22T04:35:05;100756.75;;;17.22;92.73
54248;BME280;40161;39.768;2.722;2023-05-22T04:37:30;100745.38;;;17.09;93.49
54248;BME280;40161;39.768;2.722;2023-05-22T04:39:56;100743.06;;;17.04;93.71
54248;BME280;40161;39.768;2.722;2023-05-22T04:42:28;100767.94;;;17.12;93.79
54248;BME280;40161;39.768;2.722;2023-05-22T04:44:55;100760.59;;;16.91;93.59
54248;BME280;40161;39.768;2.722;2023-05-22T04:47:22;100745.16;;;16.86;95.22
54248;BME280;40161;39.768;2.722;2023-05-22T04:49:48;100761.34;;;16.95;94.83
54248;BME280;40161;39.768;2.722;2023-05-22T04:52:13;100750.25;;;16.95;94.89
54248;BME280;40161;39.768;2.722;2023-05-22T04:54:39;100746.38;;;16.85;94.50
54248;BME280;40161;39.768;2.722;2023-05-22T04:57:05;100765.34;;;16.90;96.43
54248;BME280;40161;39.768;2.722;2023-05-22T04:59:34;100765.38;;;16.87;95.67
54248;BME280;40161;39.768;2.722;2023-05-22T05:02:03;100762.97;;;16.89;95.96
54248;BME280;40161;39.768;2.722;2023-05-22T05:04:29;100766.47;;;16.96;96.06
54248;BME280;40161;39.768;2.722;2023-05-22T05:06:54;100781.06;;;17.07;96.26
54248;BME280;40161;39.768;2.722;2023-05-22T05:09:22;100776.66;;;17.10;95.68
54248;BME280;40161;39.768;2.722;2023-05-22T05:11:48;100793.22;;;17.21;95.90
54248;BME280;40161;39.768;2.722;2023-05-22T05:14:14;100776.66;;;17.14;95.92
54248;BME280;40161;39.768;2.722;2023-05-22T05:16:39;100787.34;;;17.12;95.50
54248;BME280;40161;39.768;2.722;2023-05-22T05:19:05;100779.44;;;17.10;96.61
54248;BME280;40161;39.768;2.722;2023-05-22T05:21:30;100784.59;;;17.12;95.92
54248;BME280;40161;39.768;2.722;2023-05-22T05:23:56;100803.06;;;17.25;95.47
54248;BME280;40161;39.768;2.722;2023-05-22T05:26:21;100780.53;;;17.20;95.71
54248;BME280;40161;39.768;2.722;2023-05-22T05:28:48;100795.94;;;17.28;95.72
54248;BME280;40161;39.768;2.722;2023-05-22T05:31:14;100802.63;;;17.30;96.30
54248;BME280;40161;39.768;2.722;2023-05-22T05:33:40;100782.88;;;17.25;95.79
54248;BME280;40161;39.768;2.722;2023-05-22T05:36:05;100786.75;;;17.35;95.67
54248;BME280;40161;39.768;2.722;2023-05-22T05:38:31;100797.34;;;17.43;95.14
54248;BME280;40161;39.768;2.722;2023-05-22T05:40:57;100777.22;;;17.36;95.97
54248;BME280;40161;39.768;2.722;2023-05-22T05:43:22;100802.41;;;17.55;95.47
54248;BME280;40161;39.768;2.722;2023-05-22T05:45:49;100743.66;;;17.23;96.15
54248;BME280;40161;39.768;2.722;2023-05-22T05:48:15;100777.94;;;17.43;96.15
54248;BME280;40161;39.768;2.722;2023-05-22T05:50:41;100795.56;;;17.64;96.11
54248;BME280;40161;39.768;2.722;2023-05-22T05:53:07;100743.66;;;17.23;95.93
54248;BME280;40161;39.768;2.722;2023-05-22T05:55:32;100781.44;;;17.51;96.05
54248;BME280;40161;39.768;2.722;2023-05-22T05:57:58;100803.41;;;17.72;95.14
54248;BME280;40161;39.768;2.722;2023-05-22T06:00:24;100800.66;;;17.72;95.01
54248;BME280;40161;39.768;2.722;2023-05-22T06:02:50;100759.22;;;17.51;94.77
54248;BME280;40161;39.768;2.722;2023-05-22T06:05:16;100803.38;;;17.79;94.15
54248;BME280;40161;39.768;2.722;2023-05-22T06:07:44;100787.59;;;17.69;93.73
54248;BME280;40161;39.768;2.722;2023-05-22T06:10:10;100797.84;;;17.76;93.57
54248;BME280;40161;39.768;2.722;2023-05-22T06:12:36;100785.56;;;17.73;93.20
54248;BME280;40161;39.768;2.722;2023-05-22T06:15:05;100798.19;;;17.82;93.39
54248;BME280;40161;39.768;2.722;2023-05-22T06:17:32;100792.69;;;17.74;92.67
54248;BME280;40161;39.768;2.722;2023-05-22T06:19:58;100771.34;;;17.68;91.27
54248;BME280;40161;39.768;2.722;2023-05-22T06:22:27;100777.66;;;17.68;90.98
54248;BME280;40161;39.768;2.722;2023-05-22T06:24:53;100775.31;;;17.67;90.23
54248;BME280;40161;39.768;2.722;2023-05-22T06:27:22;100807.88;;;18.00;89.67
54248;BME280;40161;39.768;2.722;2023-05-22T06:29:52;100801.94;;;17.98;90.24
54248;BME280;40161;39.768;2.722;2023-05-22T06:32:17;100801.56;;;18.00;89.83
54248;BME280;40161;39.768;2.722;2023-05-22T06:34:44;100809.84;;;18.03;90.83
54248;BME280;40161;39.768;2.722;2023-05-22T06:37:10;100806.63;;;18.05;91.29
54248;BME280;40161;39.768;2.722;2023-05-22T06:39:36;100808.53;;;18.12;89.98
54248;BME280;40161;39.768;2.722;2023-05-22T06:42:02;100796.78;;;18.00;89.32
54248;BME280;40161;39.768;2.722;2023-05-22T06:44:27;100788.41;;;18.04;89.30
54248;BME280;40161;39.768;2.722;2023-05-22T06:46:53;100815.53;;;18.23;89.04
54248;BME280;40161;39.768;2.722;2023-05-22T06:49:19;100790.19;;;17.87;88.92
54248;BME280;40161;39.768;2.722;2023-05-22T06:51:45;100775.94;;;17.85;88.35
54248;BME280;40161;39.768;2.722;2023-05-22T06:54:11;100816.00;;;18.18;87.80
54248;BME280;40161;39.768;2.722;2023-05-22T06:56:40;100800.69;;;18.07;87.63
54248;BME280;40161;39.768;2.722;2023-05-22T06:59:06;100821.03;;;18.27;88.23
54248;BME280;40161;39.768;2.722;2023-05-22T07:01:32;100814.69;;;18.26;87.52
54248;BME280;40161;39.768;2.722;2023-05-22T07:03:58;100828.91;;;18.32;87.71
54248;BME280;40161;39.768;2.722;2023-05-22T07:06:32;100828.81;;;18.39;87.79
54248;BME280;40161;39.768;2.722;2023-05-22T07:09:07;100820.06;;;18.41;87.33
54248;BME280;40161;39.768;2.722;2023-05-22T07:11:36;100820.44;;;18.43;88.24
54248;BME280;40161;39.768;2.722;2023-05-22T07:14:01;100803.44;;;18.37;87.95
54248;BME280;40161;39.768;2.722;2023-05-22T07:16:27;100820.72;;;18.52;88.09
54248;BME280;40161;39.768;2.722;2023-05-22T07:18:54;100797.88;;;18.37;87.63
54248;BME280;40161;39.768;2.722;2023-05-22T07:21:19;100818.66;;;18.56;87.62
54248;BME280;40161;39.768;2.722;2023-05-22T07:23:48;100814.31;;;18.55;86.91
54248;BME280;40161;39.768;2.722;2023-05-22T07:26:14;100808.81;;;18.52;87.60
54248;BME280;40161;39.768;2.722;2023-05-22T07:28:39;100822.19;;;18.60;87.17
54248;BME280;40161;39.768;2.722;2023-05-22T07:31:05;100803.50;;;18.61;87.31
54248;BME280;40161;39.768;2.722;2023-05-22T07:33:30;100822.78;;;18.75;86.93
54248;BME280;40161;39.768;2.722;2023-05-22T07:35:56;100803.88;;;18.63;86.76
54248;BME280;40161;39.768;2.722;2023-05-22T07:38:21;100806.09;;;18.75;86.24
54248;BME280;40161;39.768;2.722;2023-05-22T07:40:47;100817.88;;;18.86;86.25
54248;BME280;40161;39.768;2.722;2023-05-22T07:43:13;100821.00;;;18.88;86.50
54248;BME280;40161;39.768;2.722;2023-05-22T07:45:41;100817.03;;;18.89;85.74
54248;BME280;40161;39.768;2.722;2023-05-22T07:48:08;100824.03;;;18.97;85.85
54248;BME280;40161;39.768;2.722;2023-05-22T07:50:34;100800.41;;;18.86;85.56
54248;BME280;40161;39.768;2.722;2023-05-22T07:53:00;100812.13;;;18.97;85.61
54248;BME280;40161;39.768;2.722;2023-05-22T07:55:26;100796.69;;;18.92;85.64
54248;BME280;40161;39.768;2.722;2023-05-22T07:57:51;100790.41;;;18.88;85.25
54248;BME280;40161;39.768;2.722;2023-05-22T08:00:17;100796.34;;;18.90;85.31
54248;BME280;40161;39.768;2.722;2023-05-22T08:02:43;100812.53;;;18.95;85.41
54248;BME280;40161;39.768;2.722;2023-05-22T08:05:09;100811.34;;;18.96;85.84
54248;BME280;40161;39.768;2.722;2023-05-22T08:07:35;100803.47;;;18.91;86.54
54248;BME280;40161;39.768;2.722;2023-05-22T08:10:11;100815.22;;;19.03;87.30
54248;BME280;40161;39.768;2.722;2023-05-22T08:12:37;100812.81;;;19.05;85.23
54248;BME280;40161;39.768;2.722;2023-05-22T08:15:03;100788.41;;;18.89;85.26
54248;BME280;40161;39.768;2.722;2023-05-22T08:17:29;100798.22;;;18.97;85.91
54248;BME280;40161;39.768;2.722;2023-05-22T08:19:55;100762.72;;;18.81;85.80
54248;BME280;40161;39.768;2.722;2023-05-22T08:22:20;100820.44;;;19.24;85.72
54248;BME280;40161;39.768;2.722;2023-05-22T08:24:46;100795.88;;;19.19;85.24
54248;BME280;40161;39.768;2.722;2023-05-22T08:27:11;100782.88;;;19.12;85.00
54248;BME280;40161;39.768;2.722;2023-05-22T08:29:37;100800.53;;;19.26;85.05
54248;BME280;40161;39.768;2.722;2023-05-22T08:32:02;100792.63;;;19.24;85.19
54248;BME280;40161;39.768;2.722;2023-05-22T08:34:28;100810.28;;;19.37;85.29
54248;BME280;40161;39.768;2.722;2023-05-22T08:36:53;100809.72;;;19.46;83.34
54248;BME280;40161;39.768;2.722;2023-05-22T08:39:19;100815.22;;;19.50;83.63
54248;BME280;40161;39.768;2.722;2023-05-22T08:41:45;100815.94;;;19.54;82.75
54248;BME280;40161;39.768;2.722;2023-05-22T08:44:11;100819.88;;;19.56;81.15
54248;BME280;40161;39.768;2.722;2023-05-22T08:46:38;100817.47;;;19.58;81.57
54248;BME280;40161;39.768;2.722;2023-05-22T08:49:07;100817.34;;;19.65;81.84
54248;BME280;40161;39.768;2.722;2023-05-22T08:51:37;100811.81;;;19.62;81.91
54248;BME280;40161;39.768;2.722;2023-05-22T08:54:04;100786.66;;;19.45;83.17
54248;BME280;40161;39.768;2.722;2023-05-22T08:56:32;100811.09;;;19.58;82.66
54248;BME280;40161;39.768;2.722;2023-05-22T08:58:59;100787.75;;;19.52;82.84
54248;BME280;40161;39.768;2.722;2023-05-22T09:01:25;100791.25;;;19.56;82.20
54248;BME280;40161;39.768;2.722;2023-05-22T09:03:51;100792.47;;;19.55;81.44
54248;BME280;40161;39.768;2.722;2023-05-22T09:06:17;100797.88;;;19.65;80.75
54248;BME280;40161;39.768;2.722;2023-05-22T09:08:42;100750.69;;;19.35;81.21
54248;BME280;40161;39.768;2.722;2023-05-22T09:11:08;100799.72;;;19.72;80.40
54248;BME280;40161;39.768;2.722;2023-05-22T09:13:37;100789.78;;;19.71;80.36
54248;BME280;40161;39.768;2.722;2023-05-22T09:16:11;100804.31;;;19.82;78.54
54248;BME280;40161;39.768;2.722;2023-05-22T09:18:37;100797.00;;;19.88;78.33
54248;BME280;40161;39.768;2.722;2023-05-22T09:24:26;100783.44;;;19.90;77.35
54248;BME280;40161;39.768;2.722;2023-05-22T09:26:51;100792.88;;;19.97;77.26
54248;BME280;40161;39.768;2.722;2023-05-22T09:29:17;100794.16;;;20.12;77.22
54248;BME280;40161;39.768;2.722;2023-05-22T09:31:43;100814.19;;;20.23;78.08
54248;BME280;40161;39.768;2.722;2023-05-22T09:34:09;100776.34;;;20.06;78.80
54248;BME280;40161;39.768;2.722;2023-05-22T09:36:35;100803.56;;;20.18;77.74
54248;BME280;40161;39.768;2.722;2023-05-22T09:39:02;100800.28;;;20.23;78.12
54248;BME280;40161;39.768;2.722;2023-05-22T09:41:29;100787.22;;;20.20;78.64
54248;BME280;40161;39.768;2.722;2023-05-22T09:43:55;100812.31;;;20.36;78.89
54248;BME280;40161;39.768;2.722;2023-05-22T09:46:21;100791.78;;;20.30;79.10
54248;BME280;40161;39.768;2.722;2023-05-22T09:48:53;100804.75;;;20.37;78.40
54248;BME280;40161;39.768;2.722;2023-05-22T09:51:21;100807.53;;;20.37;78.56
54248;BME280;40161;39.768;2.722;2023-05-22T09:53:50;100816.34;;;20.35;78.90
54248;BME280;40161;39.768;2.722;2023-05-22T09:56:18;100794.69;;;20.23;79.27
54248;BME280;40161;39.768;2.722;2023-05-22T09:58:48;100816.78;;;20.34;80.12
54248;BME280;40161;39.768;2.722;2023-05-22T10:01:18;100783.72;;;20.16;79.92
54248;BME280;40161;39.768;2.722;2023-05-22T10:03:44;100819.06;;;20.39;79.74
54248;BME280;40161;39.768;2.722;2023-05-22T10:06:12;100764.34;;;20.09;79.70
54248;BME280;40161;39.768;2.722;2023-05-22T10:08:43;100780.44;;;20.21;79.34
54248;BME280;40161;39.768;2.722;2023-05-22T10:11:15;100798.38;;;20.20;80.49
54248;BME280;40161;39.768;2.722;2023-05-22T10:13:42;100777.09;;;20.10;79.74
54248;BME280;40161;39.768;2.722;2023-05-22T10:16:13;100812.06;;;20.31;79.23
54248;BME280;40161;39.768;2.722;2023-05-22T10:18:41;100795.13;;;20.22;79.08
54248;BME280;40161;39.768;2.722;2023-05-22T10:21:10;100785.88;;;20.08;79.59
54248;BME280;40161;39.768;2.722;2023-05-22T10:23:37;100797.28;;;20.14;79.24
54248;BME280;40161;39.768;2.722;2023-05-22T10:26:04;100789.28;;;20.16;79.49
54248;BME280;40161;39.768;2.722;2023-05-22T10:28:41;100780.59;;;20.14;78.72
54248;BME280;40161;39.768;2.722;2023-05-22T10:34:26;100782.63;;;20.30;78.10
54248;BME280;40161;39.768;2.722;2023-05-22T10:37:06;100805.25;;;20.52;78.25
54248;BME280;40161;39.768;2.722;2023-05-22T10:39:38;100804.03;;;20.53;77.05
54248;BME280;40161;39.768;2.722;2023-05-22T10:42:13;100807.13;;;20.58;77.13
54248;BME280;40161;39.768;2.722;2023-05-22T10:44:39;100770.59;;;20.33;77.39
54248;BME280;40161;39.768;2.722;2023-05-22T10:47:11;100788.97;;;20.50;76.31
54248;BME280;40161;39.768;2.722;2023-05-22T10:49:42;100804.56;;;20.64;76.12
54248;BME280;40161;39.768;2.722;2023-05-22T10:52:12;100792.41;;;20.58;75.62
54248;BME280;40161;39.768;2.722;2023-05-22T10:54:42;100811.81;;;20.61;75.50
54248;BME280;40161;39.768;2.722;2023-05-22T10:57:15;100773.47;;;20.29;76.16
54248;BME280;40161;39.768;2.722;2023-05-22T10:59:41;100793.19;;;20.38;75.84
54248;BME280;40161;39.768;2.722;2023-05-22T11:02:27;100795.25;;;20.54;76.89
54248;BME280;40161;39.768;2.722;2023-05-22T11:07:50;100759.81;;;20.55;74.52
54248;BME280;40161;39.768;2.722;2023-05-22T11:10:25;100772.97;;;20.71;75.59
54248;BME280;40161;39.768;2.722;2023-05-22T11:13:10;100788.56;;;20.84;74.90
54248;BME280;40161;39.768;2.722;2023-05-22T11:15:36;100762.84;;;20.60;71.77
54248;BME280;40161;39.768;2.722;2023-05-22T11:18:07;100793.00;;;20.66;71.11
54248;BME280;40161;39.768;2.722;2023-05-22T11:20:36;100776.63;;;20.51;71.50
54248;BME280;40161;39.768;2.722;2023-05-22T11:23:05;100783.88;;;20.65;70.90
54248;BME280;40161;39.768;2.722;2023-05-22T11:25:33;100780.22;;;20.68;71.97
54248;BME280;40161;39.768;2.722;2023-05-22T11:28:01;100774.38;;;20.79;72.44
54248;BME280;40161;39.768;2.722;2023-05-22T11:30:27;100763.81;;;20.86;70.49
54248;BME280;40161;39.768;2.722;2023-05-22T11:32:56;100775.84;;;21.00;68.02
54248;BME280;40161;39.768;2.722;2023-05-22T11:35:22;100757.88;;;21.01;68.46
54248;BME280;40161;39.768;2.722;2023-05-22T11:37:50;100754.13;;;21.07;69.08
54248;BME280;40161;39.768;2.722;2023-05-22T11:40:20;100742.78;;;21.15;69.76
54248;BME280;40161;39.768;2.722;2023-05-22T11:42:46;100765.59;;;21.26;69.72
54248;BME280;40161;39.768;2.722;2023-05-22T11:45:12;100758.91;;;21.23;69.28
54248;BME280;40161;39.768;2.722;2023-05-22T11:47:39;100754.22;;;21.20;69.38
54248;BME280;40161;39.768;2.722;2023-05-22T11:50:07;100752.53;;;21.23;69.31
54248;BME280;40161;39.768;2.722;2023-05-22T11:52:35;100750.13;;;21.08;68.72
54248;BME280;40161;39.768;2.722;2023-05-22T11:55:03;100755.53;;;20.99;68.36
54248;BME280;40161;39.768;2.722;2023-05-22T11:57:30;100757.09;;;21.00;68.99
54248;BME280;40161;39.768;2.722;2023-05-22T11:59:56;100744.28;;;21.03;68.27
54248;BME280;40161;39.768;2.722;2023-05-22T12:02:22;100735.84;;;21.06;67.72
54248;BME280;40161;39.768;2.722;2023-05-22T12:04:55;100730.00;;;21.01;68.36
54248;BME280;40161;39.768;2.722;2023-05-22T12:07:22;100739.91;;;21.02;68.14
54248;BME280;40161;39.768;2.722;2023-05-22T12:09:48;100761.72;;;21.07;67.51
54248;BME280;40161;39.768;2.722;2023-05-22T12:12:16;100708.91;;;20.67;67.95
54248;BME280;40161;39.768;2.722;2023-05-22T12:14:44;100758.75;;;20.98;67.55
54248;BME280;40161;39.768;2.722;2023-05-22T12:17:15;100758.16;;;20.90;69.10
54248;BME280;40161;39.768;2.722;2023-05-22T12:19:44;100761.56;;;20.65;71.18
54248;BME280;40161;39.768;2.722;2023-05-22T12:22:13;100739.97;;;20.49;71.45
54248;BME280;40161;39.768;2.722;2023-05-22T12:24:40;100758.03;;;20.61;71.37
54248;BME280;40161;39.768;2.722;2023-05-22T12:27:09;100767.03;;;20.69;71.27
54248;BME280;40161;39.768;2.722;2023-05-22T12:29:36;100764.19;;;20.72;72.07
54248;BME280;40161;39.768;2.722;2023-05-22T12:32:02;100735.13;;;20.53;72.48
54248;BME280;40161;39.768;2.722;2023-05-22T12:34:34;100765.03;;;20.69;72.65
54248;BME280;40161;39.768;2.722;2023-05-22T12:37:00;100749.06;;;20.53;70.94
54248;BME280;40161;39.768;2.722;2023-05-22T12:39:27;100763.97;;;20.63;70.95
54248;BME280;40161;39.768;2.722;2023-05-22T12:41:54;100754.75;;;20.66;71.60
54248;BME280;40161;39.768;2.722;2023-05-22T12:44:20;100751.09;;;20.69;70.50
54248;BME280;40161;39.768;2.722;2023-05-22T12:46:46;100754.13;;;20.75;71.33
54248;BME280;40161;39.768;2.722;2023-05-22T12:49:11;100728.78;;;20.53;71.64
54248;BME280;40161;39.768;2.722;2023-05-22T12:51:37;100732.25;;;20.57;71.90
54248;BME280;40161;39.768;2.722;2023-05-22T12:54:03;100753.44;;;20.71;71.50
54248;BME280;40161;39.768;2.722;2023-05-22T12:56:30;100701.59;;;20.41;71.54
54248;BME280;40161;39.768;2.722;2023-05-22T12:58:56;100694.41;;;20.39;70.87
54248;BME280;40161;39.768;2.722;2023-05-22T13:01:22;100735.16;;;20.70;70.48
54248;BME280;40161;39.768;2.722;2023-05-22T13:03:50;100709.88;;;20.60;70.86
54248;BME280;40161;39.768;2.722;2023-05-22T13:06:15;100729.84;;;20.75;69.81
54248;BME280;40161;39.768;2.722;2023-05-22T13:08:41;100732.09;;;20.80;68.76
54248;BME280;40161;39.768;2.722;2023-05-22T13:11:07;100697.03;;;20.47;70.43